This is the latest recevied weather packets stored in our database for station/object DH1NAI-6. If no packets are shown the sender has not sent any weather packets the latest 10 day(s).
| Time | Temp. | Humidity | Pressure | Rain* | Wind** | Luminosity | Snow |
|---|---|---|---|---|---|---|---|
| 1778324240 | 13.89° C | 73% | 1016.3 hPa | 0 mm | - | 240 W/m² | - |
| 1778323632 | 13.33° C | 76% | 1016.3 hPa | 0 mm | - | 82 W/m² | - |
| 1778323024 | 14.44° C | 76% | 1016.3 hPa | 0 mm | - | 64 W/m² | - |
| 1778322416 | 13.89° C | 78% | 1016.2 hPa | 0 mm | - | 107 W/m² | - |
| 1778321809 | 13.89° C | 77% | 1016.6 hPa | 0 mm | - | 70 W/m² | - |
| 1778321192 | 13.33° C | 79% | 1016.4 hPa | 0 mm | - | 59 W/m² | - |
| 1778320576 | 13.33° C | 80% | 1016.5 hPa | 0 mm | - | 69 W/m² | - |
| 1778319968 | 14.44° C | 79% | 1016.3 hPa | 0 mm | - | 200 W/m² | - |
| 1778319360 | 14.44° C | 77% | 1016.4 hPa | 0 mm | - | 122 W/m² | - |
| 1778318752 | 13.33° C | 81% | 1016.5 hPa | 0 mm | - | 87 W/m² | - |
| 1778318144 | 12.22° C | 85% | 1016.4 hPa | 0 mm | - | 70 W/m² | - |
| 1778317536 | 12.22° C | 85% | 1016.6 hPa | 0 mm | - | 52 W/m² | - |
| 1778316928 | 13.33° C | 82% | 1016.3 hPa | 0 mm | - | 199 W/m² | - |
| 1778316320 | 12.22° C | 83% | 1016.5 hPa | 0 mm | - | 189 W/m² | - |
| 1778315712 | 11.67° C | 86% | 1016.3 hPa | 0 mm | - | 181 W/m² | - |
| 1778315104 | 11.67° C | 87% | 1016.6 hPa | 0 mm | - | 177 W/m² | - |
| 1778314496 | 12.22° C | 84% | 1016.5 hPa | 0 mm | - | 172 W/m² | - |
| 1778313888 | 11.11° C | 87% | 1016.3 hPa | 0 mm | - | 164 W/m² | - |
| 1778313264 | 10.56° C | 89% | 1016.4 hPa | 0 mm | - | 161 W/m² | - |
| 1778312657 | 9.44° C | 93% | 1016.7 hPa | 0 mm | - | 157 W/m² | - |
| 1778312048 | 8.89° C | 94% | 1016.6 hPa | 0 mm | - | 63 W/m² | - |
| 1778311441 | 8.89° C | 95% | 1016.6 hPa | 0 mm | - | 70 W/m² | - |
| 1778310832 | 8.33° C | 97% | 1016.6 hPa | 0 mm | - | 65 W/m² | - |
| 1778310225 | 8.33° C | 97% | 1016.8 hPa | 0 mm | - | 64 W/m² | - |
| 1778309611 | 7.78° C | 99% | 1016.4 hPa | 0 mm | - | 77 W/m² | - |
* Rain latest hour (hover to see other rain measurements)
** Current wind speed in m/s (hover to see current wind gust speed)